Time;durP1;ratioP1;P1;durP2;ratioP2;P2;SDS_P1;SDS_P2;PMS_P1;PMS_P2;Temp;Humidity;BMP_temperature;BMP_pressure;BME280_temperature;BME280_humidity;BME280_pressure;Samples;Min_cycle;Max_cycle;Signal;HPM_P1;HPM_P2
2022/06/03 05:14:20;;;;;;;12.65;5.03;;;;;;;21.61;48.34;101574.05;2445030;72;24618;-77
2022/06/03 05:17:34;;;;;;;17.98;5.58;;;;;;;21.60;48.25;101564.28;2413283;73;51288;-76
2022/06/03 05:20:42;;;;;;;14.60;5.42;;;;;;;21.78;48.05;101578.78;2360231;73;50641;-75
2022/06/03 05:23:54;;;;;;;18.15;5.33;;;;;;;21.91;47.72;101585.77;2369559;75;50308;-75
2022/06/03 05:27:20;;;;;;;17.05;5.25;;;;;;;22.02;47.45;101582.30;2306765;75;50035;-75
2022/06/03 05:30:29;;;;;;;14.98;4.47;;;;;;;22.15;47.18;101583.84;2364147;75;50579;-76
2022/06/03 05:33:37;;;;;;;16.30;5.30;;;;;;;22.27;46.91;101590.50;2364131;74;51145;-76
2022/06/03 05:36:42;;;;;;;17.15;4.78;;;;;;;22.37;46.67;101592.89;2358552;75;49966;-76
2022/06/03 05:39:48;;;;;;;;;;;;;;;22.48;46.55;101591.59;2366767;74;50625;-76
2022/06/03 05:43:21;;;;;;;23.12;5.40;;;;;;;22.58;46.35;101589.45;2331627;75;51696;-75
2022/06/03 05:46:36;;;;;;;34.73;6.08;;;;;;;22.69;46.08;101576.86;2331108;75;52357;-75
2022/06/03 05:50:01;;;;;;;25.92;5.87;;;;;;;22.73;45.98;101583.53;2364360;75;52079;-77
2022/06/03 05:53:27;;;;;;;22.30;6.22;;;;;;;22.83;45.74;101584.59;2364458;75;50338;-77
2022/06/03 05:56:33;;;;;;;25.80;6.35;;;;;;;22.92;45.59;101578.08;2334574;76;50670;-77
2022/06/03 05:59:45;;;;;;;;;;;;;;;22.97;45.53;101572.15;2337483;76;49999;-77
2022/06/03 06:02:57;;;;;;;29.42;5.72;;;;;;;23.06;45.40;101572.34;2334681;75;50673;-77
2022/06/03 06:06:28;;;;;;;31.87;7.25;;;;;;;23.21;45.17;101570.44;2334705;75;51436;-77
2022/06/03 06:09:54;;;;;;;27.10;6.45;;;;;;;23.19;45.20;101570.30;2332547;76;51416;-76
2022/06/03 06:13:08;;;;;;;38.23;6.63;;;;;;;23.23;45.08;101572.95;2323602;75;50385;-76
2022/06/03 06:16:24;;;;;;;36.35;7.35;;;;;;;23.28;44.96;101568.33;2343786;75;51428;-77
2022/06/03 06:19:38;;;;;;;26.23;5.80;;;;;;;23.26;44.65;101561.24;2358343;75;50665;-77
2022/06/03 06:22:49;;;;;;;23.47;5.42;;;;;;;23.28;44.19;101560.23;2331460;75;49476;-77
2022/06/03 06:26:09;;;;;;;20.52;4.80;;;;;;;23.27;43.66;101555.32;2312939;75;51455;-76
2022/06/03 06:29:36;;;;;;;14.20;4.65;;;;;;;23.26;43.06;101559.06;2357139;75;50694;-77
2022/06/03 06:33:02;;;;;;;14.28;4.22;;;;;;;23.28;42.50;101556.18;2359006;75;51561;-77
2022/06/03 06:36:08;;;;;;;16.35;4.17;;;;;;;23.28;41.97;101548.91;2356833;75;50552;-76
2022/06/03 06:39:25;;;;;;;10.05;3.65;;;;;;;23.30;41.60;101543.30;2329786;75;51170;-76
2022/06/03 06:42:37;;;;;;;11.43;3.33;;;;;;;23.29;41.35;101541.64;2355292;75;50710;-76
2022/06/03 06:45:54;;;;;;;6.35;3.45;;;;;;;23.28;41.01;101540.81;2355490;75;51278;-76
2022/06/03 06:49:19;;;;;;;6.67;3.27;;;;;;;23.30;40.65;101544.65;2290491;75;50907;-76
2022/06/03 06:52:41;;;;;;;7.33;2.95;;;;;;;23.30;40.46;101539.25;2359775;75;51482;-77
2022/06/03 06:55:49;;;;;;;5.05;3.20;;;;;;;23.30;40.29;101545.51;2343106;75;50720;-76
2022/06/03 06:58:57;;;;;;;8.53;3.27;;;;;;;23.31;39.96;101539.06;2319831;76;50327;-76
2022/06/03 07:02:09;;;;;;;5.75;3.12;;;;;;;23.33;39.79;101537.53;2317324;76;50760;-76
2022/06/03 07:05:17;;;;;;;4.83;2.80;;;;;;;23.31;39.67;101538.23;2305914;76;52176;-77
2022/06/03 07:08:31;;;;;;;4.03;3.00;;;;;;;23.33;39.52;101540.23;2317059;76;50522;-78
2022/06/03 07:11:47;;;;;;;4.80;3.17;;;;;;;23.31;39.44;101528.27;2332424;74;50671;-77
2022/06/03 07:15:05;;;;;;;5.20;2.83;;;;;;;23.31;39.32;101531.48;2323880;74;51711;-77
2022/06/03 07:21:43;;;;;;;4.25;2.92;;;;;;;23.30;39.15;101529.80;2315980;76;23316;-77
2022/06/03 07:25:21;;;;;;;7.08;2.80;;;;;;;23.30;39.04;101527.09;2315633;76;50446;-77
2022/06/03 07:28:43;;;;;;;9.83;3.40;;;;;;;23.32;38.98;101521.82;2318000;76;50614;-78
2022/06/03 07:31:48;;;;;;;4.97;2.83;;;;;;;23.30;38.70;101525.25;2317033;76;51138;-77
2022/06/03 07:35:07;;;;;;;3.37;3.08;;;;;;;23.30;38.70;101523.05;2316727;75;50723;-77
2022/06/03 07:38:28;;;;;;;8.23;3.00;;;;;;;23.26;38.57;101528.84;2316223;75;50321;-77
2022/06/03 07:41:42;;;;;;;3.95;2.85;;;;;;;23.26;38.56;101521.26;2296647;76;51262;-76
2022/06/03 07:45:11;;;;;;;5.83;2.70;;;;;;;23.26;38.60;101509.94;2322489;76;50573;-76
2022/06/03 07:48:16;;;;;;;4.10;2.67;;;;;;;23.26;38.47;101508.59;2245147;79;51440;-76
2022/06/03 07:51:34;;;;;;;5.30;2.47;;;;;;;23.25;38.41;101513.67;2227030;76;50710;-77
2022/06/03 07:54:35;;;;;;;5.40;2.72;;;;;;;23.26;38.38;101501.84;2303809;76;22364;-77
2022/06/03 07:57:37;;;;;;;6.92;2.80;;;;;;;23.26;38.35;101510.45;2290689;76;49497;-77
2022/06/03 08:00:40;;;;;;;5.85;2.90;;;;;;;23.25;38.42;101504.75;2256216;76;50204;-77
2022/06/03 08:03:43;;;;;;;5.22;2.67;;;;;;;23.24;38.38;101499.84;2247212;79;51558;-76
2022/06/03 08:13:42;;;;;;;3.37;2.10;;;;;;;23.21;38.31;101502.09;2247617;78;22363;-77
2022/06/03 08:16:46;;;;;;;3.20;2.50;;;;;;;23.18;38.20;101495.22;2254674;78;50680;-77
2022/06/03 08:19:48;;;;;;;7.05;2.20;;;;;;;23.16;38.17;101495.09;2335100;75;50704;-78
2022/06/03 08:22:50;;;;;;;4.58;2.58;;;;;;;23.15;38.03;101494.78;2329962;75;49497;-76
2022/06/03 08:25:54;;;;;;;4.20;2.47;;;;;;;23.13;38.02;101492.78;2334392;75;50196;-76
2022/06/03 08:29:12;;;;;;;4.83;2.50;;;;;;;23.09;37.92;101490.14;2318305;76;51491;-77
2022/06/03 08:32:17;;;;;;;5.28;2.20;;;;;;;23.05;37.98;101497.80;2306327;76;50975;-77
2022/06/03 08:35:21;;;;;;;12.03;2.90;;;;;;;23.03;38.06;101497.14;2318752;76;51541;-77
2022/06/03 08:38:27;;;;;;;6.33;2.55;;;;;;;23.03;38.07;101490.40;2318411;76;51526;-76
2022/06/03 08:41:36;;;;;;;;;;;;;;;23.01;38.39;101491.92;2320279;76;51506;-76
2022/06/03 08:44:54;;;;;;;6.22;2.55;;;;;;;23.01;38.75;101497.84;2318486;76;50607;-76
2022/06/03 08:47:57;;;;;;;8.43;2.80;;;;;;;22.97;39.08;101499.28;2318684;75;50774;-77
2022/06/03 08:51:24;;;;;;;3.92;2.05;;;;;;;22.97;39.23;101498.75;2308752;75;51270;-77
2022/06/03 08:54:30;;;;;;;8.35;2.52;;;;;;;22.94;39.48;101494.20;2323441;75;50355;-77
2022/06/03 08:57:41;;;;;;;5.05;2.47;;;;;;;22.92;39.71;101492.23;2313971;76;51472;-76
2022/06/03 09:00:49;;;;;;;6.90;2.98;;;;;;;22.92;39.90;101494.41;2318466;76;50471;-77
2022/06/03 09:04:04;;;;;;;5.20;2.62;;;;;;;22.91;40.05;101489.20;2318802;76;52543;-78
2022/06/03 09:07:27;;;;;;;7.05;2.47;;;;;;;22.87;40.17;101483.88;2306658;76;52621;-77
2022/06/03 09:10:33;;;;;;;9.10;2.25;;;;;;;22.85;40.32;101473.78;2318353;75;50240;-77
2022/06/03 09:13:54;;;;;;;;;;;;;;;22.86;40.46;101472.22;2326424;76;50281;-76
2022/06/03 09:17:07;;;;;;;6.60;2.30;;;;;;;22.85;40.58;101468.38;2321683;76;51834;-76
2022/06/03 09:20:12;;;;;;;8.83;2.70;;;;;;;22.83;40.68;101467.21;2341441;76;51528;-77
2022/06/03 09:23:16;;;;;;;;;;;;;;;22.79;40.83;101470.81;2344704;74;51413;-77
2022/06/03 09:26:25;;;;;;;10.98;2.75;;;;;;;22.77;40.91;101471.52;2355489;74;52118;-77
2022/06/03 09:29:28;;;;;;;18.37;3.00;;;;;;;22.77;40.95;101466.12;2382562;74;50040;-78
2022/06/03 09:32:35;;;;;;;14.53;3.22;;;;;;;22.75;41.04;101460.08;2382652;74;50665;-78
2022/06/03 09:35:39;;;;;;;15.55;2.62;;;;;;;22.73;41.13;101463.47;2351338;74;22355;-78
2022/06/03 09:38:44;;;;;;;17.02;3.12;;;;;;;22.73;41.03;101454.03;2383006;74;50838;-78
2022/06/03 09:41:49;;;;;;;17.00;3.05;;;;;;;22.71;40.92;101456.10;2376784;74;49543;-77
2022/06/03 09:44:51;;;;;;;22.65;3.40;;;;;;;22.67;40.80;101448.05;2382968;74;50230;-77
2022/06/03 09:47:53;;;;;;;18.77;3.27;;;;;;;22.66;40.71;101441.00;2382713;74;50230;-77
2022/06/03 09:50:57;;;;;;;40.88;5.10;;;;;;;22.64;40.72;101442.22;2376409;74;49504;-77
2022/06/03 09:53:59;;;;;;;46.65;5.92;;;;;;;22.65;40.64;101447.92;2378539;74;50561;-76
2022/06/03 09:57:27;;;;;;;39.13;5.75;;;;;;;22.63;40.50;101439.19;2360096;74;50768;-76
2022/06/03 10:00:32;;;;;;;36.77;5.33;;;;;;;22.59;40.46;101430.13;2382575;74;50450;-76
2022/06/03 10:03:34;;;;;;;37.03;5.80;;;;;;;22.57;40.35;101423.25;2382766;74;52246;-76
2022/06/03 10:06:53;;;;;;;41.15;5.17;;;;;;;22.55;40.41;101422.60;2382922;74;51137;-75
2022/06/03 10:13:12;;;;;;;35.38;5.30;;;;;;;22.55;40.38;101419.91;2356217;74;22387;-78
2022/06/03 10:16:14;;;;;;;32.88;5.15;;;;;;;22.52;40.37;101417.59;2335392;75;50898;-76
2022/06/03 10:19:16;;;;;;;29.30;5.00;;;;;;;22.50;40.86;101412.90;2370141;74;51384;-75
2022/06/03 10:22:19;;;;;;;30.88;4.95;;;;;;;22.53;40.62;101417.91;2334337;75;51420;-75
2022/06/03 10:25:23;;;;;;;40.78;5.42;;;;;;;22.52;40.69;101410.33;2301803;75;52540;-75
2022/06/03 10:28:27;;;;;;;42.20;5.95;;;;;;;22.54;40.67;101415.55;2334764;75;22322;-76
2022/06/03 10:31:31;;;;;;;68.20;9.18;;;;;;;22.54;40.58;101416.90;2335617;75;50233;-75
2022/06/03 10:34:37;;;;;;;98.42;13.18;;;;;;;22.52;40.57;101410.85;2335474;75;50723;-75
2022/06/03 10:41:43;;;;;;;87.25;12.58;;;;;;;22.52;40.51;101408.98;2368890;75;22250;-75
2022/06/03 10:44:47;;;;;;;77.35;11.12;;;;;;;22.54;40.61;101410.16;2336534;75;50787;-75
2022/06/03 10:47:50;;;;;;;97.00;11.85;;;;;;;22.50;40.82;101410.20;2370320;75;51685;-75
2022/06/03 11:01:33;;;;;;;64.20;10.10;;;;;;;22.43;40.84;101396.66;2330403;76;23318;-74
2022/06/03 11:04:39;;;;;;;59.10;9.75;;;;;;;22.44;41.00;101388.05;2328497;76;51549;-74
2022/06/03 11:07:41;;;;;;;63.00;9.53;;;;;;;22.45;41.12;101389.19;2330138;76;50344;-74
2022/06/03 11:10:50;;;;;;;68.57;9.20;;;;;;;22.42;41.31;101381.48;2364504;74;51476;-74
2022/06/03 11:13:52;;;;;;;74.05;9.83;;;;;;;22.44;41.40;101374.57;2357650;74;53088;-73
2022/06/03 11:17:00;;;;;;;51.73;8.83;;;;;;;22.44;41.46;101382.66;2277035;76;50749;-74
2022/06/03 11:20:03;;;;;;;44.95;7.53;;;;;;;22.46;41.54;101368.48;2362601;74;50395;-73
2022/06/03 11:23:07;;;;;;;39.92;7.10;;;;;;;22.45;41.61;101366.79;2373894;74;51520;-73
2022/06/03 11:26:10;;;;;;;44.23;7.50;;;;;;;22.44;41.74;101368.66;2291860;75;49596;-73
2022/06/03 11:29:18;;;;;;;47.53;7.00;;;;;;;22.46;41.71;101365.78;2354348;74;50166;-73
2022/06/03 11:32:20;;;;;;;38.20;6.45;;;;;;;22.45;41.67;101356.00;2350236;74;50317;-74
2022/06/03 11:35:28;;;;;;;47.13;7.00;;;;;;;22.44;41.81;101348.43;2337287;74;51524;-74
2022/06/03 11:38:37;;;;;;;38.08;6.42;;;;;;;22.44;41.94;101346.25;2329881;75;51577;-74
2022/06/03 11:41:51;;;;;;;43.98;7.25;;;;;;;22.45;41.67;101329.86;2305770;75;51614;-74
2022/06/03 11:44:56;;;;;;;33.53;5.70;;;;;;;22.45;41.62;101326.34;2353207;75;51540;-73
2022/06/03 11:47:59;;;;;;;;;;;;;;;22.45;41.62;101322.30;2354284;75;50946;-73
2022/06/03 11:51:02;;;;;;;30.77;5.92;;;;;;;22.44;41.58;101317.42;2342182;75;49567;-74
2022/06/03 11:54:04;;;;;;;30.68;5.70;;;;;;;22.41;41.60;101302.98;2342801;74;52465;-73
2022/06/03 11:57:07;;;;;;;25.72;5.33;;;;;;;22.45;41.53;101298.02;2345997;75;50712;-73
2022/06/03 12:00:12;;;;;;;65.72;7.53;;;;;;;22.44;41.62;101298.55;2359579;74;51177;-74
2022/06/03 12:03:33;;;;;;;57.62;7.72;;;;;;;22.44;41.69;101290.97;2353321;75;50358;-74
2022/06/03 12:07:01;;;;;;;39.38;6.55;;;;;;;22.42;41.75;101288.98;2353194;74;50440;-74
2022/06/03 12:10:06;;;;;;;34.15;7.15;;;;;;;22.45;41.41;101292.62;2340949;75;50312;-74
2022/06/03 12:13:17;;;;;;;;;;;;;;;22.46;41.50;101288.92;2337115;76;50280;-75
2022/06/03 12:16:19;;;;;;;35.43;5.80;;;;;;;22.45;41.71;101283.19;2328859;75;50275;-74
2022/06/03 12:19:42;;;;;;;30.12;5.90;;;;;;;22.45;41.74;101273.23;2266599;76;50616;-74
2022/06/03 12:22:45;;;;;;;24.63;5.28;;;;;;;22.45;41.84;101273.75;2321062;76;51618;-74
2022/06/03 12:25:54;;;;;;;39.08;6.28;;;;;;;22.46;41.84;101264.66;2290373;76;50962;-74
2022/06/03 12:29:00;;;;;;;33.30;5.90;;;;;;;22.45;41.91;101262.97;2291564;77;50243;-74
2022/06/03 12:32:03;;;;;;;;;;;;;;;22.46;41.95;101259.27;2303145;77;50211;-74
2022/06/03 12:35:42;;;;;;;26.75;5.30;;;;;;;22.42;42.64;101257.97;2276070;77;51312;-74
2022/06/03 12:38:48;;;;;;;24.65;4.67;;;;;;;22.43;41.97;101254.23;2300216;77;50648;-74
2022/06/03 12:41:51;;;;;;;;;;;;;;;22.46;42.36;101252.00;2303411;76;50711;-74
2022/06/03 12:45:08;;;;;;;21.50;4.80;;;;;;;22.48;42.91;101250.44;2292251;76;52559;-72
2022/06/03 12:48:38;;;;;;;18.32;4.50;;;;;;;22.49;42.44;101237.30;2326081;76;22341;-73
2022/06/03 12:52:00;;;;;;;16.85;4.55;;;;;;;22.50;42.25;101236.25;2326128;76;51561;-73
2022/06/03 12:55:19;;;;;;;26.52;4.92;;;;;;;22.53;42.03;101235.86;2270999;76;49482;-73
2022/06/03 12:58:33;;;;;;;17.17;4.60;;;;;;;22.58;42.29;101219.92;2289392;76;50223;-73
2022/06/03 13:01:51;;;;;;;13.55;4.20;;;;;;;22.48;41.78;101216.73;2297051;76;51462;-73
2022/06/03 13:04:59;;;;;;;10.72;5.05;;;;;;;22.46;41.29;101218.81;2304658;77;51497;-73
2022/06/03 13:08:07;;;;;;;11.18;3.87;;;;;;;22.43;41.53;101211.95;2304574;77;51428;-74
2022/06/03 13:11:14;;;;;;;15.43;3.72;;;;;;;22.42;41.26;101205.39;2270291;77;51665;-73
2022/06/03 13:14:28;;;;;;;11.33;3.37;;;;;;;22.41;41.23;101202.38;2299926;76;51521;-73
2022/06/03 13:17:59;;;;;;;9.65;3.30;;;;;;;22.41;41.26;101199.69;2331666;75;50457;-74
2022/06/03 13:21:05;;;;;;;13.30;3.35;;;;;;;22.42;41.50;101195.95;2303568;75;50161;-73
2022/06/03 13:24:22;;;;;;;;;;;;;;;22.43;41.36;101182.77;2365444;75;50701;-73
2022/06/03 13:27:28;;;;;;;9.53;2.95;;;;;;;22.44;41.53;101187.16;2312240;76;51430;-74
2022/06/03 13:30:36;;;;;;;;;;;;;;;22.44;41.39;101188.50;2332741;76;50406;-73
2022/06/03 13:34:01;;;;;;;4.87;2.90;;;;;;;22.43;41.39;101187.67;2330216;76;51477;-74
2022/06/03 13:37:30;;;;;;;9.17;2.83;;;;;;;22.46;41.44;101195.89;2330480;76;50280;-74
2022/06/03 13:40:34;;;;;;;10.28;3.08;;;;;;;22.48;41.43;101192.45;2295626;76;51043;-71
2022/06/03 13:43:36;;;;;;;6.40;3.00;;;;;;;22.48;41.24;101184.37;2330288;76;51453;-72
2022/06/03 13:46:38;;;;;;;6.30;2.87;;;;;;;22.48;41.23;101178.97;2296207;76;51478;-72
2022/06/03 13:49:58;;;;;;;4.50;2.58;;;;;;;22.48;41.03;101171.75;2329948;76;51498;-72
2022/06/03 13:53:03;;;;;;;6.08;2.60;;;;;;;22.50;40.95;101164.78;2321983;76;51471;-73
2022/06/03 13:56:08;;;;;;;6.53;2.77;;;;;;;22.52;40.88;101158.69;2319083;75;50051;-73
2022/06/03 13:59:13;;;;;;;5.43;2.37;;;;;;;22.52;40.68;101156.81;2370499;75;50251;-73
2022/06/03 14:02:17;;;;;;;;;;;;;;;22.53;40.49;101168.43;2373411;75;51574;-73
2022/06/03 14:05:34;;;;;;;5.30;2.25;;;;;;;22.53;40.30;101153.59;2335321;75;51302;-73
2022/06/03 14:08:42;;;;;;;4.42;2.67;;;;;;;22.56;40.27;101142.44;2370308;75;50670;-73
2022/06/03 14:11:56;;;;;;;3.95;2.25;;;;;;;22.60;40.41;101141.00;2370776;75;50426;-72
2022/06/03 14:15:02;;;;;;;3.15;2.27;;;;;;;22.57;40.46;101149.49;2249753;78;49879;-73
2022/06/03 14:18:05;;;;;;;6.65;2.45;;;;;;;22.58;40.42;101149.30;2241679;76;50227;-73
2022/06/03 14:21:08;;;;;;;9.13;2.65;;;;;;;22.58;40.25;101143.91;2239629;78;51448;-73
2022/06/03 14:24:19;;;;;;;5.62;2.50;;;;;;;22.61;40.08;101144.03;2208502;79;50816;-72
2022/06/03 14:27:39;;;;;;;7.35;2.75;;;;;;;22.61;40.19;101136.77;2222931;77;51486;-72
2022/06/03 14:31:02;;;;;;;9.08;2.77;;;;;;;22.63;40.16;101149.20;2183456;80;50978;-73
2022/06/03 14:34:16;;;;;;;4.53;2.77;;;;;;;22.63;40.02;101142.47;2207079;80;51443;-73
2022/06/03 14:37:21;;;;;;;7.35;3.12;;;;;;;22.64;40.03;101137.41;2207196;80;51577;-73
2022/06/03 14:40:25;;;;;;;6.97;2.90;;;;;;;22.66;39.97;101134.83;2206778;79;51399;-73
2022/06/03 14:43:29;;;;;;;7.37;3.40;;;;;;;22.67;40.24;101132.95;2207555;80;52351;-73
2022/06/03 14:46:46;;;;;;;5.67;3.08;;;;;;;22.67;40.32;101124.87;2207300;80;51537;-73
2022/06/03 14:49:56;;;;;;;5.17;2.87;;;;;;;22.68;40.21;101126.00;2183368;80;52893;-73
2022/06/03 14:53:24;;;;;;;6.47;2.87;;;;;;;22.70;40.12;101130.69;2282748;77;51495;-73
2022/06/03 14:56:49;;;;;;;6.42;2.60;;;;;;;22.72;40.08;101110.27;2326797;75;50646;-72
2022/06/03 15:00:11;;;;;;;4.80;2.98;;;;;;;22.74;40.04;101109.03;2292103;76;49551;-72
2022/06/03 15:03:29;;;;;;;8.40;3.62;;;;;;;22.74;40.27;101109.56;2319192;76;50081;-73
2022/06/03 15:06:34;;;;;;;7.95;3.35;;;;;;;22.78;41.28;101106.76;2326475;76;50344;-73
2022/06/03 15:09:47;;;;;;;;;;;;;;;22.85;41.48;101107.63;2328926;76;50343;-72
2022/06/03 15:12:56;;;;;;;5.78;3.33;;;;;;;22.88;41.84;101106.40;2325595;76;50741;-73
2022/06/03 15:15:58;;;;;;;6.83;3.08;;;;;;;22.94;42.07;101112.33;2243117;75;51538;-74
2022/06/03 15:19:00;;;;;;;6.12;3.05;;;;;;;22.93;43.44;101101.23;2301379;74;50318;-72
2022/06/03 15:22:02;;;;;;;6.67;3.22;;;;;;;22.93;43.17;101106.11;2301754;76;51556;-73
2022/06/03 15:25:14;;;;;;;12.45;3.58;;;;;;;23.00;42.44;101097.56;2312003;76;52069;-73
2022/06/03 15:28:16;;;;;;;8.50;3.40;;;;;;;23.01;42.48;101101.91;2324091;74;51867;-74
2022/06/03 15:31:21;;;;;;;17.70;3.55;;;;;;;22.99;43.74;101099.09;2382868;74;51347;-73
2022/06/03 15:34:24;;;;;;;26.73;3.67;;;;;;;23.02;42.43;101093.33;2349538;74;51657;-74
2022/06/03 15:37:26;;;;;;;11.78;3.17;;;;;;;22.99;42.09;101097.25;2382762;74;51566;-73
2022/06/03 15:40:33;;;;;;;12.28;3.60;;;;;;;22.98;41.60;101101.49;2381546;74;50301;-73
2022/06/03 15:43:44;;;;;;;13.25;3.55;;;;;;;22.99;41.37;101097.75;2382641;74;50376;-73
2022/06/03 15:46:59;;;;;;;12.15;3.45;;;;;;;23.00;41.24;101094.03;2382685;74;51132;-73
2022/06/03 15:50:12;;;;;;;8.88;3.05;;;;;;;22.97;41.19;101089.88;2347833;74;51002;-72
2022/06/03 15:53:24;;;;;;;11.97;3.87;;;;;;;22.99;40.97;101086.46;2382419;74;50142;-73
2022/06/03 15:56:55;;;;;;;12.95;3.77;;;;;;;23.01;40.92;101080.84;2355086;74;51555;-74
2022/06/03 16:00:20;;;;;;;5.12;2.85;;;;;;;23.00;40.87;101078.66;2348926;74;52826;-72
2022/06/03 16:03:34;;;;;;;6.33;3.47;;;;;;;23.01;40.68;101079.49;2263401;77;50231;-74
2022/06/03 16:06:43;;;;;;;7.10;2.75;;;;;;;23.02;40.56;101078.48;2263261;78;50536;-73
2022/06/03 16:09:57;;;;;;;6.03;2.67;;;;;;;23.01;40.69;101070.87;2273080;77;49928;-73
2022/06/03 16:13:26;;;;;;;9.95;3.17;;;;;;;23.05;40.78;101078.06;2301697;77;50377;-73
2022/06/03 16:17:07;;;;;;;7.03;2.98;;;;;;;23.02;40.85;101080.66;2315384;75;50212;-72
2022/06/03 16:20:14;;;;;;;4.47;3.30;;;;;;;23.01;40.90;101068.70;2311088;77;51489;-73
2022/06/03 16:23:26;;;;;;;8.08;3.20;;;;;;;23.01;40.96;101064.65;2351697;75;51396;-73
2022/06/03 16:26:43;;;;;;;5.37;2.67;;;;;;;23.00;40.91;101058.95;2341147;74;52634;-73
2022/06/03 16:30:07;;;;;;;5.28;2.77;;;;;;;22.99;40.94;101055.91;2375107;74;51547;-73
2022/06/03 16:33:15;;;;;;;8.70;3.47;;;;;;;23.01;40.90;101047.11;2392030;74;51662;-73
2022/06/03 16:36:23;;;;;;;6.37;3.00;;;;;;;22.98;40.91;101052.39;2381205;74;50233;-72
2022/06/03 16:39:35;;;;;;;14.95;3.80;;;;;;;22.96;40.88;101045.50;2331307;75;50228;-72
2022/06/03 16:43:04;;;;;;;10.13;3.27;;;;;;;22.96;41.34;101044.16;2324110;75;51019;-72
2022/06/03 16:46:16;;;;;;;17.27;4.30;;;;;;;22.95;41.87;101042.50;2308933;77;50364;-73
2022/06/03 16:49:21;;;;;;;14.25;3.42;;;;;;;22.97;41.91;101040.47;2367315;74;50328;-73
2022/06/03 16:52:30;;;;;;;24.25;3.75;;;;;;;22.96;41.94;101037.41;2318398;75;50946;-73
2022/06/03 16:55:40;;;;;;;18.00;3.83;;;;;;;22.98;42.14;101036.72;2306907;75;50610;-72
2022/06/03 16:58:51;;;;;;;15.75;3.40;;;;;;;23.01;42.10;101034.44;2276423;77;50481;-73
2022/06/03 17:01:53;;;;;;;13.10;3.80;;;;;;;23.01;41.79;101039.83;2318352;75;51545;-73
2022/06/03 17:04:56;;;;;;;18.57;4.05;;;;;;;23.03;41.69;101036.95;2355029;75;51430;-73
2022/06/03 17:08:00;;;;;;;13.78;3.35;;;;;;;22.99;41.61;101036.53;2360369;74;50112;-73
2022/06/03 17:11:03;;;;;;;10.98;3.67;;;;;;;23.02;41.57;101032.59;2361088;74;51587;-73
2022/06/03 17:14:14;;;;;;;13.13;4.50;;;;;;;23.02;41.37;101029.89;2396656;74;51517;-73
2022/06/03 17:17:21;;;;;;;11.83;5.05;;;;;;;23.01;41.34;101034.44;2359963;74;53584;-73
2022/06/03 17:20:27;;;;;;;22.32;4.83;;;;;;;22.99;41.38;101027.58;2414597;73;51444;-73
2022/06/03 17:23:38;;;;;;;14.15;5.17;;;;;;;22.96;41.67;101027.96;2428501;73;50256;-73
2022/06/03 17:27:18;;;;;;;16.73;4.62;;;;;;;22.95;41.89;101029.00;2412937;73;51517;-73
2022/06/03 17:30:36;;;;;;;16.82;5.17;;;;;;;22.99;41.88;101031.62;2396472;73;51561;-75
2022/06/03 17:33:54;;;;;;;20.25;4.92;;;;;;;22.97;42.12;101030.50;2360569;74;50047;-74
2022/06/03 17:37:21;;;;;;;23.32;6.12;;;;;;;22.94;42.25;101036.77;2396621;74;51475;-73
2022/06/03 17:40:50;;;;;;;21.17;5.90;;;;;;;22.93;42.29;101032.42;2396330;73;51593;-74
2022/06/03 17:43:59;;;;;;;20.08;5.58;;;;;;;22.92;42.18;101034.81;2324226;75;51053;-74
2022/06/03 17:47:13;;;;;;;17.62;5.17;;;;;;;22.87;42.25;101040.81;2355225;75;50318;-74
2022/06/03 17:50:18;;;;;;;18.10;5.58;;;;;;;22.87;42.26;101045.38;2410196;73;50753;-74
2022/06/03 17:56:54;;;;;;;18.77;5.10;;;;;;;22.84;42.30;101030.42;2396986;74;22412;-75
2022/06/03 18:00:13;;;;;;;19.20;5.33;;;;;;;22.82;42.39;101036.53;2405157;74;50641;-73
2022/06/03 18:03:20;;;;;;;15.13;5.55;;;;;;;22.80;42.36;101043.47;2362251;74;25480;-75
2022/06/03 18:06:28;;;;;;;20.35;6.08;;;;;;;22.79;42.45;101041.82;2393682;74;51634;-75
2022/06/03 18:09:45;;;;;;;16.97;5.37;;;;;;;22.82;42.53;101041.94;2393724;74;22694;-75
2022/06/03 18:12:53;;;;;;;14.63;5.70;;;;;;;22.80;42.65;101042.12;2396153;74;50406;-75
2022/06/03 18:15:59;;;;;;;18.90;5.50;;;;;;;22.79;42.77;101041.00;2381692;74;51485;-75
2022/06/03 18:19:10;;;;;;;16.48;5.72;;;;;;;22.78;42.91;101043.36;2361504;73;49540;-75
2022/06/03 18:22:36;;;;;;;32.03;5.90;;;;;;;22.76;43.19;101036.83;2424337;73;49919;-76
2022/06/03 18:26:05;;;;;;;18.40;5.90;;;;;;;22.76;43.36;101036.83;2352414;72;51549;-73
2022/06/03 18:29:32;;;;;;;14.53;4.90;;;;;;;22.76;43.42;101033.28;2394183;74;50272;-74
2022/06/03 18:32:41;;;;;;;22.37;5.83;;;;;;;22.74;43.37;101042.94;2394572;74;51500;-73
2022/06/03 18:35:50;;;;;;;17.98;5.92;;;;;;;22.75;43.58;101044.59;2397895;74;50365;-74
2022/06/03 18:39:07;;;;;;;20.70;5.25;;;;;;;22.74;43.75;101046.16;2406706;73;51769;-74
2022/06/03 18:46:23;;;;;;;19.80;5.83;;;;;;;22.74;43.87;101048.86;2431919;73;22235;-74
2022/06/03 18:49:45;;;;;;;12.00;5.22;;;;;;;22.73;43.95;101040.43;2423144;73;51647;-73
2022/06/03 18:52:58;;;;;;;13.75;5.53;;;;;;;22.71;44.10;101042.00;2353069;74;51782;-73
2022/06/03 18:56:14;;;;;;;17.17;5.58;;;;;;;22.70;44.14;101053.80;2363649;74;50729;-74
2022/06/03 18:59:32;;;;;;;23.98;10.95;;;;;;;22.70;44.23;101047.58;2423333;73;50717;-74
2022/06/03 19:02:43;;;;;;;33.70;15.18;;;;;;;22.69;44.40;101049.45;2406153;73;50996;-73
2022/06/03 19:05:47;;;;;;;33.60;17.95;;;;;;;22.68;44.68;101049.12;2401850;74;50778;-73
2022/06/03 19:08:58;;;;;;;38.05;17.17;;;;;;;22.68;44.77;101047.77;2392647;74;51487;-75
2022/06/03 19:12:13;;;;;;;34.18;17.67;;;;;;;22.69;44.78;101054.85;2343366;75;51312;-74
2022/06/03 19:15:21;;;;;;;38.80;19.10;;;;;;;22.67;44.85;101048.81;2394096;74;52183;-74
2022/06/03 19:18:38;;;;;;;48.40;22.85;;;;;;;22.68;44.88;101053.69;2388657;74;50648;-73
2022/06/03 19:21:58;;;;;;;49.27;25.57;;;;;;;22.66;44.97;101051.70;2345263;75;51536;-74
2022/06/03 19:25:27;;;;;;;59.88;29.95;;;;;;;22.67;44.96;101062.83;2352236;75;22474;-74
2022/06/03 19:28:53;;;;;;;65.08;35.45;;;;;;;22.65;45.00;101071.11;2356885;74;50067;-74
2022/06/03 19:31:57;;;;;;;;;;;;;;;22.65;45.11;101070.28;2331748;76;50394;-74
2022/06/03 19:34:59;;;;;;;76.60;38.75;;;;;;;22.64;45.11;101068.10;2329022;76;51514;-74
2022/06/03 19:38:23;;;;;;;78.67;40.23;;;;;;;22.64;45.16;101076.72;2295061;76;50339;-74
2022/06/03 19:45:40;;;;;;;87.00;44.58;;;;;;;22.63;45.32;101083.12;2378291;74;24226;-74
2022/06/03 19:49:02;;;;;;;86.92;45.80;;;;;;;22.63;45.39;101085.83;2336313;74;52459;-73
2022/06/03 19:52:25;;;;;;;92.70;47.35;;;;;;;22.68;45.21;101094.98;2309160;76;51518;-75
2022/06/03 19:55:31;;;;;;;112.08;53.02;;;;;;;22.67;45.33;101090.63;2297919;76;50772;-76
2022/06/03 19:58:37;;;;;;;;;;;;;;;22.66;45.76;101095.72;2300045;77;50260;-75
2022/06/03 20:01:42;;;;;;;99.62;47.43;;;;;;;22.64;45.77;101095.08;2298845;76;51288;-76
2022/06/03 20:04:50;;;;;;;97.50;49.63;;;;;;;22.66;45.82;101095.72;2296481;76;50313;-76
2022/06/03 20:07:58;;;;;;;98.40;50.12;;;;;;;22.70;45.82;101095.62;2335477;76;51473;-75
2022/06/03 20:13:22;;;;;;;100.95;53.35;;;;;;;22.71;45.92;101095.95;2324113;75;51491;-76
2022/06/03 20:14:16;;;;;;;115.17;55.63;;;;;;;22.72;46.04;101094.91;2292525;76;22381;-74
2022/06/03 20:17:21;;;;;;;104.78;55.70;;;;;;;22.73;46.15;101097.91;2273528;77;51600;-75
2022/06/03 20:20:30;;;;;;;116.67;59.00;;;;;;;22.75;46.18;101103.12;2309547;76;50001;-75
2022/06/03 20:23:52;;;;;;;112.03;57.88;;;;;;;22.75;46.23;101101.25;2238981;77;50072;-76
2022/06/03 20:27:03;;;;;;;114.88;58.20;;;;;;;22.77;46.24;101097.84;2322312;76;50367;-75
2022/06/03 20:30:29;;;;;;;109.97;58.83;;;;;;;22.77;46.31;101101.89;2340698;76;50445;-75
2022/06/03 20:33:40;;;;;;;115.45;58.42;;;;;;;22.78;46.30;101096.80;2307485;76;50383;-75
2022/06/03 20:36:56;;;;;;;112.55;57.20;;;;;;;22.78;46.31;101094.09;2336170;76;50407;-75
2022/06/03 20:40:08;;;;;;;117.93;59.23;;;;;;;22.79;46.29;101086.86;2293618;76;49612;-74